Time;durP1;ratioP1;P1;durP2;ratioP2;P2;SDS_P1;SDS_P2;PMS_P1;PMS_P2;Temp;Humidity;BMP_temperature;BMP_pressure;BME280_temperature;BME280_humidity;BME280_pressure;Samples;Min_cycle;Max_cycle;Signal;HPM_P1;HPM_P2
2024/01/13 00:01:51;;;;;;;;;;;;;;;8.22;46.22;101455.97;4951478;28;98628;-69
2024/01/13 00:04:17;;;;;;;;;;;;;;;8.22;46.45;101456.78;4949561;27;98998;-65
2024/01/13 00:06:43;;;;;;;;;;;;;;;8.22;46.80;101455.97;4947435;28;98334;-65
2024/01/13 00:09:10;;;;;;;;;;;;;;;8.22;46.43;101454.09;4962530;27;97973;-65
2024/01/13 00:11:38;;;;;;;;;;;;;;;8.21;46.55;101449.75;4950354;27;98113;-70
2024/01/13 00:14:05;;;;;;;;;;;;;;;8.22;46.16;101458.66;4963746;27;97928;-64
2024/01/13 00:16:31;;;;;;;;;;;;;;;8.22;46.84;101464.84;4950891;27;98591;-69
2024/01/13 00:18:57;;;;;;;;;;;;;;;8.22;45.98;101466.72;4949055;27;98041;-69
2024/01/13 00:21:23;;;;;;;;;;;;;;;8.22;46.92;101456.78;4967038;27;98059;-65
2024/01/13 00:23:49;;;;;;;;;;;;;;;8.23;46.64;101458.41;4964097;28;98833;-69
2024/01/13 00:26:15;;;;;;;;;;;;;;;8.23;46.15;101457.59;4965396;27;99876;-65
2024/01/13 00:28:41;;;;;;;;;;;;;;;8.21;46.56;101452.44;4948237;28;98235;-69
2024/01/13 00:31:07;;;;;;;;;;;;;;;8.24;46.37;101451.16;4950993;27;98134;-69
2024/01/13 00:33:34;;;;;;;;;;;;;;;8.24;46.77;101456.53;4950774;28;99963;-69
2024/01/13 00:36:00;;;;;;;;;;;;;;;8.23;46.42;101442.31;4950144;27;97954;-69
2024/01/13 00:38:26;;;;;;;;;;;;;;;8.24;46.55;101443.13;4947742;27;98203;-64
2024/01/13 00:40:52;;;;;;;;;;;;;;;8.23;46.69;101447.66;4965767;28;99949;-64
2024/01/13 00:43:18;;;;;;;;;;;;;;;8.24;46.35;101443.94;4947995;27;109768;-64
2024/01/13 00:45:44;;;;;;;;;;;;;;;8.23;46.38;101426.19;4957797;28;98272;-65
2024/01/13 00:48:10;;;;;;;;;;;;;;;8.23;46.18;101423.50;4963638;27;98146;-69
2024/01/13 00:50:37;;;;;;;;;;;;;;;8.23;46.59;101420.00;4947950;27;98181;-65
2024/01/13 00:53:03;;;;;;;;;;;;;;;8.21;46.32;101414.84;4963371;27;98276;-64
2024/01/13 00:55:29;;;;;;;;;;;;;;;8.23;46.45;101418.13;4962325;27;98012;-65
2024/01/13 00:57:55;;;;;;;;;;;;;;;8.23;46.31;101417.31;4962096;27;97978;-65
2024/01/13 01:00:21;;;;;;;;;;;;;;;8.23;46.33;101418.13;4946644;27;103099;-65
2024/01/13 01:02:47;;;;;;;;;;;;;;;8.23;46.55;101411.94;4940402;28;99565;-69
2024/01/13 01:05:13;;;;;;;;;;;;;;;8.23;46.53;101410.06;4948838;27;98173;-69
2024/01/13 01:07:39;;;;;;;;;;;;;;;8.24;46.25;101418.94;4962010;27;98982;-65
2024/01/13 01:10:06;;;;;;;;;;;;;;;8.24;46.27;101419.75;4946139;27;99520;-69
2024/01/13 01:12:32;;;;;;;;;;;;;;;8.24;46.87;101405.50;4959704;27;99511;-65
2024/01/13 01:14:58;;;;;;;;;;;;;;;8.24;46.20;101417.06;4944645;27;103185;-65
2024/01/13 01:17:24;;;;;;;;;;;;;;;8.24;46.05;101406.31;4947434;27;98199;-69
2024/01/13 01:19:50;;;;;;;;;;;;;;;8.24;46.53;101405.50;4966924;28;99360;-69
2024/01/13 01:22:16;;;;;;;;;;;;;;;8.23;46.70;101402.00;4949346;27;98175;-69
2024/01/13 01:24:42;;;;;;;;;;;;;;;8.24;46.74;101402.81;4943888;28;98361;-65
2024/01/13 01:27:08;;;;;;;;;;;;;;;8.24;46.45;101402.81;4950240;27;98079;-64
2024/01/13 01:29:34;;;;;;;;;;;;;;;8.25;46.92;101399.09;4962448;27;98329;-69
2024/01/13 01:32:00;;;;;;;;;;;;;;;8.22;46.86;101395.00;4962937;27;109848;-69
2024/01/13 01:34:27;;;;;;;;;;;;;;;8.24;46.64;101390.22;4955878;27;97890;-65
2024/01/13 01:36:53;;;;;;;;;;;;;;;8.25;46.81;101396.41;4976666;27;99735;-68
2024/01/13 01:39:19;;;;;;;;;;;;;;;8.25;46.22;101393.72;4957668;28;98955;-65
2024/01/13 01:41:45;;;;;;;;;;;;;;;8.22;46.54;101392.31;4944816;27;98172;-64
2024/01/13 01:44:11;;;;;;;;;;;;;;;8.24;45.98;101398.25;4958906;27;99434;-69
2024/01/13 01:46:37;;;;;;;;;;;;;;;8.24;46.07;101379.47;4945037;27;98817;-69
2024/01/13 01:49:03;;;;;;;;;;;;;;;8.24;46.67;101382.16;4944860;27;98103;-64
2024/01/13 01:51:29;;;;;;;;;;;;;;;8.24;46.80;101389.38;4945480;27;128576;-69
2024/01/13 01:53:56;;;;;;;;;;;;;;;8.24;46.91;101375.97;4945337;27;98699;-69
2024/01/13 01:56:28;;;;;;;;;;;;;;;8.24;46.54;101375.97;4958240;27;98084;-69
2024/01/13 01:58:54;;;;;;;;;;;;;;;8.23;46.03;101380.53;4946953;28;98446;-69
2024/01/13 02:01:24;;;;;;;;;;;;;;;8.22;46.47;101378.06;4945839;27;99308;-64
2024/01/13 02:03:50;;;;;;;;;;;;;;;8.19;46.16;101384.72;4940175;27;98087;-65
2024/01/13 02:06:16;;;;;;;;;;;;;;;8.17;46.80;101381.41;4943402;27;99111;-65
2024/01/13 02:08:42;;;;;;;;;;;;;;;8.16;46.43;101373.59;4959702;28;97906;-64
2024/01/13 02:11:11;;;;;;;;;;;;;;;8.13;45.99;101366.81;4946231;27;98457;-69
2024/01/13 02:13:41;;;;;;;;;;;;;;;8.12;46.81;101366.00;4966519;27;98028;-69
2024/01/13 02:16:08;;;;;;;;;;;;;;;8.11;46.33;101360.88;4945920;27;98707;-69
2024/01/13 02:18:34;;;;;;;;;;;;;;;8.10;46.52;101352.00;4967502;27;98200;-67
2024/01/13 02:21:01;;;;;;;;;;;;;;;8.10;46.34;101348.50;4945376;27;99246;-65
2024/01/13 02:23:27;;;;;;;;;;;;;;;8.09;46.93;101347.66;4958421;27;98188;-64
2024/01/13 02:25:53;;;;;;;;;;;;;;;8.07;46.45;101339.03;4944997;27;98603;-64
2024/01/13 02:28:19;;;;;;;;;;;;;;;8.07;46.59;101335.53;4946989;28;98176;-69
2024/01/13 02:30:45;;;;;;;;;;;;;;;8.06;46.46;101334.72;4949819;27;98088;-64
2024/01/13 02:33:12;;;;;;;;;;;;;;;8.06;46.63;101332.03;4964854;27;98693;-69
2024/01/13 02:35:38;;;;;;;;;;;;;;;8.05;46.92;101332.22;4954481;28;98229;-65
2024/01/13 02:38:04;;;;;;;;;;;;;;;8.04;46.38;101331.41;4962975;27;98261;-64
2024/01/13 02:40:30;;;;;;;;;;;;;;;8.04;46.03;101325.22;4977287;27;101409;-69
2024/01/13 02:42:56;;;;;;;;;;;;;;;8.04;46.23;101330.59;4949142;27;98669;-65
2024/01/13 02:45:22;;;;;;;;;;;;;;;8.03;46.61;101326.28;4945368;27;98056;-64
2024/01/13 02:48:00;;;;;;;;;;;;;;;8.02;46.05;101320.09;4966314;28;98882;-64
2024/01/13 02:50:26;;;;;;;;;;;;;;;8.03;46.57;101319.03;4952229;27;98616;-65
2024/01/13 02:52:52;;;;;;;;;;;;;;;8.02;46.87;101317.41;4965536;27;98449;-65
2024/01/13 02:55:19;;;;;;;;;;;;;;;8.01;46.25;101313.06;4961201;27;98619;-69
2024/01/13 02:57:45;;;;;;;;;;;;;;;8.02;46.50;101317.41;4966738;28;98532;-65
2024/01/13 03:00:13;;;;;;;;;;;;;;;8.02;46.11;101311.22;4947534;28;99572;-64
2024/01/13 03:02:39;;;;;;;;;;;;;;;8.01;46.74;101315.75;4951006;27;98451;-69
2024/01/13 03:05:09;;;;;;;;;;;;;;;8.01;46.68;101310.38;4962493;27;98244;-69
2024/01/13 03:07:35;;;;;;;;;;;;;;;8.01;46.25;101304.19;4965579;27;98265;-69
2024/01/13 03:10:02;;;;;;;;;;;;;;;8.01;46.53;101299.66;4963450;27;99096;-68
2024/01/13 03:12:28;;;;;;;;;;;;;;;8.01;46.41;101301.53;4952406;27;98210;-65
2024/01/13 03:14:55;;;;;;;;;;;;;;;8.01;46.24;101293.47;4958271;28;99310;-65
2024/01/13 03:17:22;;;;;;;;;;;;;;;8.01;46.35;101298.84;4947461;27;99865;-65
2024/01/13 03:19:48;;;;;;;;;;;;;;;8.00;46.80;101289.97;4960764;28;98555;-69
2024/01/13 03:22:14;;;;;;;;;;;;;;;8.00;46.41;101294.53;4966695;27;104648;-69
2024/01/13 03:24:40;;;;;;;;;;;;;;;7.99;46.31;101293.72;4962658;27;98612;-64
2024/01/13 03:27:06;;;;;;;;;;;;;;;8.00;46.16;101281.09;4943266;28;98349;-69
2024/01/13 03:29:33;;;;;;;;;;;;;;;8.00;46.52;101281.09;4962298;28;98270;-69
2024/01/13 03:31:59;;;;;;;;;;;;;;;8.00;46.47;101271.16;4946887;27;98157;-69
2024/01/13 03:34:25;;;;;;;;;;;;;;;7.99;46.46;101271.41;4944763;28;99563;-64
2024/01/13 03:36:51;;;;;;;;;;;;;;;7.99;46.68;101269.53;4945596;28;98302;-65
2024/01/13 03:39:17;;;;;;;;;;;;;;;7.99;46.58;101271.41;4947003;27;98214;-69
2024/01/13 03:41:43;;;;;;;;;;;;;;;7.98;46.77;101269.78;4960847;28;98140;-69
2024/01/13 03:44:09;;;;;;;;;;;;;;;7.98;46.09;101262.53;4942444;27;98303;-68
2024/01/13 03:46:35;;;;;;;;;;;;;;;7.98;46.73;101264.41;4946800;27;102526;-64
2024/01/13 03:49:01;;;;;;;;;;;;;;;7.98;46.64;101259.84;4958078;27;99945;-65
2024/01/13 03:51:27;;;;;;;;;;;;;;;7.98;46.43;101257.16;4948059;27;98230;-64
2024/01/13 03:53:53;;;;;;;;;;;;;;;7.98;46.61;101262.53;4944711;28;98003;-69
2024/01/13 03:56:19;;;;;;;;;;;;;;;7.98;46.15;101256.34;4944146;27;98222;-65
2024/01/13 03:58:46;;;;;;;;;;;;;;;7.97;46.20;101257.38;4945221;28;99220;-69
2024/01/13 04:01:12;;;;;;;;;;;;;;;7.97;46.50;101250.13;4950486;27;98153;-69
2024/01/13 04:03:40;;;;;;;;;;;;;;;7.98;46.53;101245.63;4947142;27;98005;-70
2024/01/13 04:06:06;;;;;;;;;;;;;;;7.97;46.65;101246.66;4963122;27;98140;-68
2024/01/13 04:08:34;;;;;;;;;;;;;;;7.97;46.94;101243.97;4961692;27;98439;-69
2024/01/13 04:11:03;;;;;;;;;;;;;;;7.97;46.14;101254.69;4947025;27;99678;-69
2024/01/13 04:13:29;;;;;;;;;;;;;;;7.97;46.95;101244.78;4945960;27;98339;-69
2024/01/13 04:15:55;;;;;;;;;;;;;;;7.97;46.29;101241.28;4947138;28;98161;-69
2024/01/13 04:18:21;;;;;;;;;;;;;;;7.98;46.27;101248.31;4945660;27;99051;-65
2024/01/13 04:20:47;;;;;;;;;;;;;;;7.97;46.73;101239.41;4946734;28;98183;-69
2024/01/13 04:23:13;;;;;;;;;;;;;;;8.02;46.66;101242.22;4944843;27;109892;-69
2024/01/13 04:25:39;;;;;;;;;;;;;;;8.08;46.66;101230.53;4961590;28;100957;-65
2024/01/13 04:28:05;;;;;;;;;;;;;;;8.16;46.72;101220.53;4946632;27;110896;-64
2024/01/13 04:30:31;;;;;;;;;;;;;;;8.19;46.93;101206.63;4958771;28;107557;-65
2024/01/13 04:32:57;;;;;;;;;;;;;;;8.26;46.98;101207.34;4940406;27;97942;-65
2024/01/13 04:35:23;;;;;;;;;;;;;;;8.28;46.51;101203.34;4965342;27;99220;-65
2024/01/13 04:37:49;;;;;;;;;;;;;;;8.32;46.79;101214.44;4950494;28;128588;-65
2024/01/13 04:40:15;;;;;;;;;;;;;;;8.35;46.23;101216.66;4945475;27;126984;-65
2024/01/13 04:42:41;;;;;;;;;;;;;;;8.36;47.06;101213.75;4958773;28;98960;-69
2024/01/13 04:45:08;;;;;;;;;;;;;;;8.39;46.95;101209.00;4945855;27;100059;-65
2024/01/13 04:47:34;;;;;;;;;;;;;;;8.40;46.54;101199.88;4961880;27;98243;-69
2024/01/13 04:50:00;;;;;;;;;;;;;;;8.41;46.61;101196.97;4945034;27;99077;-69
2024/01/13 04:52:26;;;;;;;;;;;;;;;8.41;46.57;101193.44;4945475;27;98077;-64
2024/01/13 04:54:52;;;;;;;;;;;;;;;8.41;47.08;101191.59;4944066;28;99794;-69
2024/01/13 04:57:18;;;;;;;;;;;;;;;8.41;46.84;101194.28;4949270;27;97960;-66
2024/01/13 04:59:45;;;;;;;;;;;;;;;8.41;46.11;101188.91;4961305;28;98517;-69
2024/01/13 05:02:11;;;;;;;;;;;;;;;8.41;46.32;101180.00;4948476;27;98239;-65
2024/01/13 05:04:38;;;;;;;;;;;;;;;8.41;46.66;101175.47;4957041;27;100400;-64
2024/01/13 05:07:04;;;;;;;;;;;;;;;8.42;46.82;101173.59;4961203;27;98214;-69
2024/01/13 05:09:31;;;;;;;;;;;;;;;8.42;46.78;101169.03;4963103;27;99499;-65
2024/01/13 05:11:58;;;;;;;;;;;;;;;8.42;46.98;101157.47;4965340;27;98185;-69
2024/01/13 05:14:24;;;;;;;;;;;;;;;8.43;46.26;101148.38;4963055;27;98185;-69
2024/01/13 05:16:50;;;;;;;;;;;;;;;8.42;47.01;101150.22;4947189;27;98014;-69
2024/01/13 05:19:18;;;;;;;;;;;;;;;8.41;46.27;101140.56;4945352;27;99748;-69
2024/01/13 05:21:44;;;;;;;;;;;;;;;8.41;46.83;101153.97;4942469;27;98651;-64
2024/01/13 05:24:10;;;;;;;;;;;;;;;8.40;46.98;101151.50;4962336;27;99386;-65
2024/01/13 05:26:37;;;;;;;;;;;;;;;8.40;46.42;101157.69;4980798;27;100436;-69
2024/01/13 05:29:04;;;;;;;;;;;;;;;8.40;46.75;101164.94;4944924;27;98114;-64
2024/01/13 05:31:30;;;;;;;;;;;;;;;8.40;47.00;101170.31;4961410;27;98555;-65
2024/01/13 05:33:56;;;;;;;;;;;;;;;8.39;46.25;101166.00;4949866;28;98654;-64
2024/01/13 05:36:22;;;;;;;;;;;;;;;8.39;46.47;101168.69;4945026;28;98245;-64
2024/01/13 05:38:49;;;;;;;;;;;;;;;8.38;46.42;101167.88;4954613;27;98754;-69
2024/01/13 05:41:15;;;;;;;;;;;;;;;8.39;46.59;101158.75;4950300;27;99051;-69
2024/01/13 05:43:41;;;;;;;;;;;;;;;8.38;46.46;101165.19;4951644;27;99419;-65
2024/01/13 05:46:10;;;;;;;;;;;;;;;8.39;46.77;101166.00;4947235;27;98060;-69
2024/01/13 05:48:36;;;;;;;;;;;;;;;8.38;46.86;101165.19;4953253;27;98245;-70
2024/01/13 05:51:02;;;;;;;;;;;;;;;8.37;46.22;101160.88;4947263;27;98151;-69
2024/01/13 05:53:29;;;;;;;;;;;;;;;8.38;46.24;101159.00;4941702;27;98436;-66
2024/01/13 05:55:55;;;;;;;;;;;;;;;8.38;46.21;101156.31;4930671;28;103143;-70
2024/01/13 05:58:21;;;;;;;;;;;;;;;8.37;47.07;101163.56;4927127;28;99485;-65
2024/01/13 06:00:47;;;;;;;;;;;;;;;8.36;46.89;101162.69;4927715;28;98079;-66
2024/01/13 06:03:14;;;;;;;;;;;;;;;8.36;46.22;101162.69;4943457;28;98020;-70
2024/01/13 06:05:40;;;;;;;;;;;;;;;8.35;46.52;101155.69;4933236;28;97839;-70
2024/01/13 06:08:06;;;;;;;;;;;;;;;8.37;46.85;101144.75;4932310;28;98466;-65
2024/01/13 06:10:34;;;;;;;;;;;;;;;8.35;46.63;101141.44;4929600;28;98059;-69
2024/01/13 06:13:01;;;;;;;;;;;;;;;8.35;46.82;101161.06;4928686;28;98155;-69
2024/01/13 06:15:28;;;;;;;;;;;;;;;8.35;46.82;101146.81;4943018;28;99190;-65
2024/01/13 06:17:54;;;;;;;;;;;;;;;8.35;46.27;101146.81;4944542;28;98070;-70
2024/01/13 06:20:20;;;;;;;;;;;;;;;8.34;46.54;101159.44;4943496;28;99237;-65
2024/01/13 06:22:46;;;;;;;;;;;;;;;8.34;47.10;101155.94;4934588;28;97991;-70
2024/01/13 06:25:12;;;;;;;;;;;;;;;8.34;46.81;101143.31;4922405;28;101310;-69
2024/01/13 06:27:38;;;;;;;;;;;;;;;8.34;46.50;101143.31;4931314;28;99043;-65
2024/01/13 06:30:05;;;;;;;;;;;;;;;8.34;46.72;101151.38;4948974;28;98016;-65
2024/01/13 06:32:31;;;;;;;;;;;;;;;8.34;46.61;101148.69;4946019;28;99919;-65
2024/01/13 06:34:57;;;;;;;;;;;;;;;8.34;46.32;101142.50;4924843;28;98010;-70
2024/01/13 06:37:24;;;;;;;;;;;;;;;8.33;46.71;101146.22;4924574;28;101506;-66
2024/01/13 06:39:50;;;;;;;;;;;;;;;8.33;47.00;101138.16;4923540;28;98092;-69
2024/01/13 06:42:16;;;;;;;;;;;;;;;8.32;46.66;101141.91;4923863;28;99463;-65
2024/01/13 06:44:42;;;;;;;;;;;;;;;8.31;46.47;101134.91;4938154;28;116597;-69
2024/01/13 06:47:08;;;;;;;;;;;;;;;8.32;46.70;101131.16;4935267;28;98076;-69
2024/01/13 06:49:35;;;;;;;;;;;;;;;8.31;46.39;101130.34;4938417;28;98108;-66
2024/01/13 06:52:01;;;;;;;;;;;;;;;8.32;46.97;101123.09;4928031;28;99835;-65
2024/01/13 06:54:27;;;;;;;;;;;;;;;8.32;46.96;101123.91;4938043;28;98444;-65
2024/01/13 06:56:53;;;;;;;;;;;;;;;8.33;47.08;101114.00;4923508;28;98313;-65
2024/01/13 06:59:20;;;;;;;;;;;;;;;8.32;46.39;101110.50;4924557;28;99577;-69
2024/01/13 07:01:49;;;;;;;;;;;;;;;8.32;47.00;101110.50;4923449;28;99197;-65
2024/01/13 07:04:15;;;;;;;;;;;;;;;8.32;46.56;101113.19;4923577;28;100015;-65
2024/01/13 07:06:41;;;;;;;;;;;;;;;8.33;46.97;101106.78;4921697;28;98208;-65
2024/01/13 07:09:07;;;;;;;;;;;;;;;8.33;46.25;101104.09;4940059;28;98685;-65
2024/01/13 07:11:33;;;;;;;;;;;;;;;8.33;46.83;101093.34;4940186;28;129452;-70
2024/01/13 07:13:59;;;;;;;;;;;;;;;8.33;46.83;101093.34;4933998;28;101406;-65
2024/01/13 07:16:26;;;;;;;;;;;;;;;8.33;46.58;101092.50;4940987;28;98161;-70
2024/01/13 07:18:52;;;;;;;;;;;;;;;8.34;46.90;101094.16;4927512;28;98268;-65
2024/01/13 07:21:19;;;;;;;;;;;;;;;8.34;47.01;101105.72;4920583;28;99253;-65
2024/01/13 07:23:45;;;;;;;;;;;;;;;8.35;46.80;101099.28;4942204;28;97901;-65
2024/01/13 07:26:11;;;;;;;;;;;;;;;8.36;46.80;101094.72;4924697;28;99915;-65
2024/01/13 07:28:37;;;;;;;;;;;;;;;8.36;46.51;101090.16;4918012;28;98268;-65
2024/01/13 07:31:04;;;;;;;;;;;;;;;8.38;46.74;101084.59;4934431;28;99620;-65
2024/01/13 07:33:30;;;;;;;;;;;;;;;8.37;46.50;101077.59;4923768;28;99780;-70
2024/01/13 07:35:56;;;;;;;;;;;;;;;8.38;46.74;101084.59;4926095;28;99593;-65
2024/01/13 07:38:22;;;;;;;;;;;;;;;8.40;46.97;101087.84;4939682;28;98204;-70
2024/01/13 07:40:48;;;;;;;;;;;;;;;8.41;46.89;101085.97;4924191;28;98388;-65
2024/01/13 07:43:15;;;;;;;;;;;;;;;8.41;46.65;101077.91;4924381;28;100513;-70
2024/01/13 07:45:41;;;;;;;;;;;;;;;8.43;46.14;101079.31;4926762;28;98116;-69
2024/01/13 07:48:07;;;;;;;;;;;;;;;8.45;46.24;101076.38;4928837;28;98320;-69
2024/01/13 07:50:33;;;;;;;;;;;;;;;8.46;46.63;101083.41;4921283;28;99931;-65
2024/01/13 07:52:59;;;;;;;;;;;;;;;8.46;47.00;101080.72;4925773;28;98086;-70
2024/01/13 07:55:25;;;;;;;;;;;;;;;8.48;46.59;101078.59;4918933;28;99311;-65
2024/01/13 07:57:52;;;;;;;;;;;;;;;8.49;46.76;101070.31;4936255;28;97996;-70
2024/01/13 08:00:19;;;;;;;;;;;;;;;8.51;46.75;101068.19;4929318;28;98004;-70
2024/01/13 08:02:45;;;;;;;;;;;;;;;8.53;46.17;101071.47;4940850;28;100857;-70
2024/01/13 08:05:12;;;;;;;;;;;;;;;8.57;46.32;101071.81;4939128;28;98744;-66
2024/01/13 08:07:38;;;;;;;;;;;;;;;8.59;46.67;101067.00;4943194;28;98018;-69
2024/01/13 08:10:05;;;;;;;;;;;;;;;8.62;46.48;101055.78;4923385;28;99657;-70
2024/01/13 08:12:31;;;;;;;;;;;;;;;8.67;46.28;101053.19;4926984;28;98147;-70
2024/01/13 08:14:57;;;;;;;;;;;;;;;8.71;46.08;101051.63;4942273;28;99073;-70
2024/01/13 08:17:24;;;;;;;;;;;;;;;8.75;46.78;101039.34;4926140;28;101284;-71
2024/01/13 08:19:50;;;;;;;;;;;;;;;8.78;46.54;101038.88;4954729;28;103865;-70
2024/01/13 08:22:16;;;;;;;;;;;;;;;8.80;46.57;101036.78;4935189;28;98684;-65
2024/01/13 08:24:42;;;;;;;;;;;;;;;8.82;46.85;101033.84;4919655;28;127123;-70
2024/01/13 08:27:08;;;;;;;;;;;;;;;8.86;46.16;101034.97;4925339;28;98265;-70
2024/01/13 08:29:34;;;;;;;;;;;;;;;8.89;45.89;101039.88;4921164;28;98139;-65
2024/01/13 08:32:00;;;;;;;;;;;;;;;8.90;46.54;101027.25;4937866;28;98548;-65
2024/01/13 08:34:26;;;;;;;;;;;;;;;8.93;46.61;101024.06;4919736;28;97979;-70
2024/01/13 08:36:52;;;;;;;;;;;;;;;8.95;46.11;101008.50;4921507;28;98169;-70
2024/01/13 08:39:18;;;;;;;;;;;;;;;8.98;46.27;101003.44;4920312;28;98100;-65
2024/01/13 08:41:45;;;;;;;;;;;;;;;9.00;46.48;101001.34;4933985;28;98084;-70
2024/01/13 08:44:11;;;;;;;;;;;;;;;9.03;46.78;101003.53;4918532;28;99468;-70
2024/01/13 08:46:37;;;;;;;;;;;;;;;9.04;46.88;101002.50;4936588;28;98137;-65
2024/01/13 08:49:04;;;;;;;;;;;;;;;9.07;46.57;100996.59;4924221;28;104327;-65
2024/01/13 08:51:30;;;;;;;;;;;;;;;9.11;46.06;100999.63;4922504;28;99547;-66
2024/01/13 08:53:56;;;;;;;;;;;;;;;9.13;46.42;100992.13;4934362;28;98259;-70
2024/01/13 08:56:22;;;;;;;;;;;;;;;9.17;46.49;100990.59;4924498;28;98017;-65
2024/01/13 08:58:48;;;;;;;;;;;;;;;9.21;46.21;100991.72;4939124;28;126699;-70
2024/01/13 09:01:15;;;;;;;;;;;;;;;9.23;46.19;100978.81;4919142;28;100189;-65
2024/01/13 09:03:41;;;;;;;;;;;;;;;9.26;46.47;100985.59;4924290;28;98145;-70
2024/01/13 09:06:09;;;;;;;;;;;;;;;9.27;46.22;100993.41;4937849;28;98130;-66
2024/01/13 09:08:35;;;;;;;;;;;;;;;9.31;46.60;101001.81;4922461;28;98510;-70
2024/01/13 09:11:01;;;;;;;;;;;;;;;9.33;46.42;100997.81;4920717;28;98871;-70
2024/01/13 09:13:27;;;;;;;;;;;;;;;9.37;46.33;100987.38;4923165;28;98785;-70
2024/01/13 09:15:53;;;;;;;;;;;;;;;9.41;46.09;100990.41;4925196;28;98569;-70
2024/01/13 09:18:19;;;;;;;;;;;;;;;9.42;46.04;100978.56;4921549;28;100057;-65
2024/01/13 09:20:45;;;;;;;;;;;;;;;9.48;46.30;100981.09;4926325;28;98079;-67
2024/01/13 09:23:11;;;;;;;;;;;;;;;9.51;46.82;100982.47;4938614;28;97869;-70
2024/01/13 09:25:37;;;;;;;;;;;;;;;9.54;46.37;100979.28;4938042;28;98014;-70
2024/01/13 09:28:04;;;;;;;;;;;;;;;9.59;46.57;100976.69;4925143;28;98712;-65
2024/01/13 09:30:30;;;;;;;;;;;;;;;9.66;46.28;100973.78;4936233;28;98201;-70
2024/01/13 09:32:56;;;;;;;;;;;;;;;9.68;45.99;100971.69;4921492;28;98744;-70
2024/01/13 09:35:22;;;;;;;;;;;;;;;9.76;46.49;100972.06;4919088;28;98109;-65
2024/01/13 09:37:48;;;;;;;;;;;;;;;9.86;45.98;100971.34;4940441;28;98759;-70
2024/01/13 09:40:15;;;;;;;;;;;;;;;9.91;46.20;100966.06;4917253;28;98201;-70
2024/01/13 09:43:01;;;;;;;;;;;;;;;9.97;46.20;100962.34;4935755;28;99057;-65
2024/01/13 09:45:27;;;;;;;;;;;;;;;9.99;46.13;100960.22;4931579;28;98865;-70
2024/01/13 09:47:54;;;;;;;;;;;;;;;10.00;45.96;100967.25;4924645;28;99509;-65
2024/01/13 09:50:20;;;;;;;;;;;;;;;10.02;46.46;100966.97;4921158;28;98552;-70
2024/01/13 09:52:46;;;;;;;;;;;;;;;10.00;46.27;100961.03;4925105;28;98322;-71
2024/01/13 09:55:12;;;;;;;;;;;;;;;9.97;46.59;100962.34;4935538;28;98509;-70
2024/01/13 09:57:38;;;;;;;;;;;;;;;9.96;46.60;100965.31;4921262;28;98436;-70
2024/01/13 10:00:06;;;;;;;;;;;;;;;9.92;45.98;100964.97;4920151;28;100201;-70
2024/01/13 10:02:32;;;;;;;;;;;;;;;9.92;46.24;100959.59;4919426;28;98007;-65
2024/01/13 10:04:58;;;;;;;;;;;;;;;9.93;46.69;100960.41;4934777;28;97985;-70
2024/01/13 10:07:25;;;;;;;;;;;;;;;9.95;46.21;100950.22;4920098;28;121031;-70
2024/01/13 10:09:51;;;;;;;;;;;;;;;9.94;46.18;100949.41;4921602;28;98339;-69
2024/01/13 10:12:17;;;;;;;;;;;;;;;9.92;46.27;100937.25;4937304;28;99594;-70
2024/01/13 10:14:43;;;;;;;;;;;;;;;9.92;46.47;100934.56;4937411;28;98218;-70
2024/01/13 10:17:09;;;;;;;;;;;;;;;9.91;46.40;100931.06;4921706;28;99879;-65
2024/01/13 10:19:38;;;;;;;;;;;;;;;9.91;46.48;100925.66;4935876;28;98452;-66
2024/01/13 10:22:05;;;;;;;;;;;;;;;9.91;46.37;100919.47;4957563;28;98401;-66
2024/01/13 10:24:31;;;;;;;;;;;;;;;9.91;46.57;100924.84;4941682;28;99019;-66
2024/01/13 10:26:57;;;;;;;;;;;;;;;9.91;46.08;100901.44;4936051;28;99605;-70
2024/01/13 10:29:26;;;;;;;;;;;;;;;9.93;46.23;100912.75;4923046;28;108313;-66
2024/01/13 10:31:53;;;;;;;;;;;;;;;9.93;46.23;100910.06;4924056;28;98128;-70
2024/01/13 10:34:20;;;;;;;;;;;;;;;9.95;46.07;100910.63;4920534;28;98388;-65
2024/01/13 10:36:46;;;;;;;;;;;;;;;9.98;46.03;100920.91;4936229;28;98600;-70
2024/01/13 10:39:12;;;;;;;;;;;;;;;10.00;46.72;100926.84;4930289;28;98844;-66
2024/01/13 10:41:42;;;;;;;;;;;;;;;10.04;46.44;100925.25;4926210;28;98279;-65
2024/01/13 10:44:09;;;;;;;;;;;;;;;10.03;46.29;100920.94;4923456;28;98029;-70
2024/01/13 10:46:38;;;;;;;;;;;;;;;10.09;46.50;100911.03;4934127;28;98671;-65
2024/01/13 10:49:34;;;;;;;;;;;;;;;10.14;46.31;100897.63;4919966;28;98699;-65
2024/01/13 10:52:01;;;;;;;;;;;;;;;10.19;46.50;100895.00;4936692;28;98575;-70
2024/01/13 10:54:30;;;;;;;;;;;;;;;10.19;46.39;100878.00;4945081;28;98189;-66
2024/01/13 10:56:56;;;;;;;;;;;;;;;10.15;46.64;100863.44;4924971;28;100034;-66
2024/01/13 10:59:30;;;;;;;;;;;;;;;10.13;46.46;100871.75;4936671;28;98054;-70
2024/01/13 11:01:58;;;;;;;;;;;;;;;10.09;46.69;100881.41;4943182;28;98573;-70
2024/01/13 11:04:25;;;;;;;;;;;;;;;10.03;46.51;100882.44;4942175;28;99788;-70
2024/01/13 11:06:51;;;;;;;;;;;;;;;9.98;46.60;100880.50;4928563;28;98532;-70
2024/01/13 11:09:17;;;;;;;;;;;;;;;9.93;46.87;100869.66;4923247;28;98291;-65
2024/01/13 11:12:03;;;;;;;;;;;;;;;9.89;46.79;100863.16;4939052;28;98468;-70
2024/01/13 11:14:32;;;;;;;;;;;;;;;9.87;46.31;100857.22;4940695;28;98398;-65
2024/01/13 11:16:58;;;;;;;;;;;;;;;9.88;46.54;100855.34;4938468;28;99702;-65
2024/01/13 11:19:24;;;;;;;;;;;;;;;9.93;46.18;100852.69;4939679;28;100046;-69
2024/01/13 11:21:51;;;;;;;;;;;;;;;10.04;46.37;100846.34;4928911;28;129318;-66
2024/01/13 11:24:19;;;;;;;;;;;;;;;10.08;45.97;100850.97;4936286;28;98157;-65
2024/01/13 11:26:48;;;;;;;;;;;;;;;10.08;46.66;100859.03;4920317;28;98100;-69
2024/01/13 11:29:16;;;;;;;;;;;;;;;10.13;45.94;100857.47;4928924;28;98615;-65
2024/01/13 11:31:43;;;;;;;;;;;;;;;10.16;46.59;100830.84;4923042;28;98554;-65
2024/01/13 11:34:10;;;;;;;;;;;;;;;10.18;46.18;100842.19;4925061;28;98312;-65
2024/01/13 11:36:40;;;;;;;;;;;;;;;10.16;46.33;100833.53;4922332;28;98325;-65
2024/01/13 11:39:06;;;;;;;;;;;;;;;10.17;46.31;100842.41;4923476;28;99528;-70
2024/01/13 11:41:52;;;;;;;;;;;;;;;10.16;46.81;100814.66;4937866;28;98019;-65
2024/01/13 11:44:25;;;;;;;;;;;;;;;10.14;46.38;100819.53;4922186;28;99320;-65
2024/01/13 11:47:11;;;;;;;;;;;;;;;10.10;46.57;100810.31;4921327;28;98090;-65
2024/01/13 11:49:43;;;;;;;;;;;;;;;10.11;46.42;100819.22;4937947;28;98345;-70
2024/01/13 11:52:16;;;;;;;;;;;;;;;10.04;46.71;100816.72;4936162;28;98197;-65
2024/01/13 11:54:43;;;;;;;;;;;;;;;10.00;46.71;100823.69;4923416;28;98283;-65
2024/01/13 11:57:12;;;;;;;;;;;;;;;9.96;46.70;100812.59;4940129;28;98825;-69
2024/01/13 11:59:38;;;;;;;;;;;;;;;9.93;46.82;100815.00;4922911;28;98010;-69
2024/01/13 12:02:04;;;;;;;;;;;;;;;9.90;46.57;100810.91;4922558;28;99590;-70
2024/01/13 12:04:31;;;;;;;;;;;;;;;9.86;46.75;100799.03;4934497;28;98318;-70
2024/01/13 12:06:57;;;;;;;;;;;;;;;9.83;46.41;100800.38;4919294;28;99089;-65
2024/01/13 12:09:24;;;;;;;;;;;;;;;9.86;46.54;100798.22;4922402;28;98149;-65
2024/01/13 12:12:02;;;;;;;;;;;;;;;9.87;46.45;100787.22;4925421;28;98064;-69
2024/01/13 12:14:29;;;;;;;;;;;;;;;9.89;46.25;100803.09;4925668;28;98420;-70
2024/01/13 12:16:56;;;;;;;;;;;;;;;9.85;46.20;100792.03;4924780;28;98083;-66
2024/01/13 12:19:25;;;;;;;;;;;;;;;9.86;46.55;100769.41;4944632;28;99117;-69
2024/01/13 12:21:51;;;;;;;;;;;;;;;9.86;46.31;100771.28;4936063;28;97929;-65
2024/01/13 12:24:24;;;;;;;;;;;;;;;9.92;46.54;100760.31;4924485;28;98047;-65
2024/01/13 12:26:50;;;;;;;;;;;;;;;9.93;46.54;100748.47;4923769;28;98124;-65
2024/01/13 12:29:16;;;;;;;;;;;;;;;9.93;46.67;100755.75;4939352;28;99510;-65
2024/01/13 12:31:42;;;;;;;;;;;;;;;9.91;46.37;100757.91;4926756;28;98099;-65
2024/01/13 12:34:12;;;;;;;;;;;;;;;9.86;46.98;100750.56;4941378;28;97948;-65
2024/01/13 12:36:38;;;;;;;;;;;;;;;9.81;46.86;100750.53;4927520;28;97973;-65
2024/01/13 12:39:06;;;;;;;;;;;;;;;9.79;46.49;100744.59;4933343;28;98467;-70
2024/01/13 12:41:33;;;;;;;;;;;;;;;9.76;46.69;100743.22;4956474;28;98213;-65
2024/01/13 12:44:03;;;;;;;;;;;;;;;9.75;46.90;100740.78;4924783;28;99403;-65